createdAt,value
2017-06-15T00:00:18.522Z,40.80
2017-06-15T00:02:45.184Z,41.30
2017-06-15T00:05:11.835Z,41.50
2017-06-15T00:07:38.099Z,41.40
2017-06-15T00:10:04.337Z,41.80
2017-06-15T00:12:31.314Z,41.80
2017-06-15T00:14:57.583Z,41.90
2017-06-15T00:17:24.950Z,42.00
2017-06-15T00:19:51.206Z,42.00
2017-06-15T00:22:18.111Z,42.40
2017-06-15T00:24:45.870Z,42.20
2017-06-15T00:27:12.125Z,42.60
2017-06-15T00:34:35.510Z,42.80
2017-06-15T00:37:02.142Z,42.70
2017-06-15T00:39:29.145Z,43.20
2017-06-15T00:41:55.429Z,42.50
2017-06-15T00:46:50.425Z,43.40
2017-06-15T00:49:16.716Z,42.90
2017-06-15T00:51:43.721Z,43.10
2017-06-15T00:54:10.943Z,43.30
2017-06-15T00:56:37.932Z,43.40
2017-06-15T00:59:04.199Z,43.40
2017-06-15T01:01:30.457Z,44.00
2017-06-15T01:08:52.729Z,43.60
2017-06-15T01:11:19.713Z,44.10
2017-06-15T01:13:45.974Z,43.60
2017-06-15T01:16:12.234Z,43.60
2017-06-15T01:18:38.846Z,43.40
2017-06-15T01:21:05.099Z,43.60
2017-06-15T01:23:31.371Z,43.50
2017-06-15T01:25:57.657Z,43.40
2017-06-15T01:28:23.931Z,43.70
2017-06-15T01:30:50.250Z,43.80
2017-06-15T01:33:16.522Z,43.90
2017-06-15T01:35:43.154Z,44.10
2017-06-15T01:45:33.490Z,44.50
2017-06-15T01:47:59.790Z,45.00
2017-06-15T01:50:26.847Z,45.60
2017-06-15T01:55:21.110Z,45.00
2017-06-15T01:57:48.494Z,45.20
2017-06-15T02:00:15.516Z,45.10
2017-06-15T02:02:41.859Z,45.30
2017-06-15T02:05:08.111Z,45.50
2017-06-15T02:07:34.382Z,46.30
2017-06-15T02:10:00.997Z,46.20
2017-06-15T02:17:23.987Z,46.70
2017-06-15T02:19:50.978Z,47.60
2017-06-15T02:24:45.635Z,46.60
2017-06-15T02:27:13.485Z,47.00
2017-06-15T02:29:40.172Z,46.80
2017-06-15T02:32:06.436Z,46.70
2017-06-15T02:34:32.694Z,46.70
2017-06-15T02:36:59.005Z,46.70
2017-06-15T02:39:26.376Z,47.00
2017-06-15T02:41:52.621Z,47.10
2017-06-15T02:44:18.866Z,47.30
2017-06-15T02:54:09.842Z,47.20
2017-06-15T02:56:36.110Z,47.30
2017-06-15T02:59:03.570Z,48.00
2017-06-15T03:01:29.841Z,47.60
2017-06-15T03:03:56.470Z,48.10
2017-06-15T03:06:23.961Z,48.10
2017-06-15T03:08:50.223Z,47.90
2017-06-15T03:11:17.245Z,48.00
2017-06-15T03:13:45.029Z,47.80
2017-06-15T03:16:12.814Z,48.10
2017-06-15T03:23:35.090Z,48.20
2017-06-15T03:26:01.374Z,48.70
2017-06-15T03:28:27.733Z,48.90
2017-06-15T03:30:54.453Z,48.80
2017-06-15T03:33:21.461Z,49.00
2017-06-15T03:35:47.727Z,48.60
2017-06-15T03:38:14.173Z,48.50
2017-06-15T03:40:41.171Z,49.70
2017-06-15T03:43:07.426Z,48.80
2017-06-15T03:45:34.803Z,48.00
2017-06-15T03:48:01.423Z,48.10
2017-06-15T03:50:27.708Z,48.10
2017-06-15T03:57:50.910Z,48.40
2017-06-15T04:00:17.908Z,48.20
2017-06-15T04:02:44.198Z,48.20
2017-06-15T04:05:10.443Z,48.30
2017-06-15T04:07:36.706Z,48.30
2017-06-15T04:10:03.710Z,48.40
2017-06-15T04:12:30.746Z,49.70
2017-06-15T04:14:56.987Z,48.30
2017-06-15T04:17:23.978Z,48.60
2017-06-15T04:19:50.230Z,48.10
2017-06-15T04:22:17.222Z,48.00
2017-06-15T04:24:44.227Z,47.60
2017-06-15T04:32:07.246Z,47.50
2017-06-15T04:34:39.062Z,47.50
2017-06-15T04:37:05.746Z,47.30
2017-06-15T04:39:31.998Z,46.70
2017-06-15T04:41:58.263Z,47.20
2017-06-15T04:44:24.911Z,45.10
2017-06-15T04:46:51.171Z,43.40
2017-06-15T04:49:17.810Z,42.30
2017-06-15T04:51:45.161Z,39.10
2017-06-15T04:54:11.809Z,36.50
2017-06-15T04:56:38.071Z,33.60
2017-06-15T05:04:01.517Z,33.30
2017-06-15T05:06:28.281Z,33.70
2017-06-15T05:08:54.537Z,30.60
2017-06-15T05:13:48.853Z,28.20
2017-06-15T05:16:15.888Z,27.50
2017-06-15T05:18:43.074Z,26.70
2017-06-15T05:21:09.460Z,24.80
2017-06-15T05:23:35.759Z,24.30
2017-06-15T05:26:02.015Z,24.80
2017-06-15T05:28:29.758Z,25.70
2017-06-15T05:30:56.041Z,24.10
2017-06-15T05:38:20.170Z,26.80
2017-06-15T05:40:46.809Z,26.80
2017-06-15T05:43:13.113Z,24.90
2017-06-15T05:45:39.398Z,25.70
2017-06-15T05:48:06.044Z,26.90
2017-06-15T05:50:32.679Z,26.00
2017-06-15T05:52:59.669Z,26.80
2017-06-15T05:55:27.619Z,27.10
2017-06-15T05:57:53.862Z,28.00
2017-06-15T06:00:21.236Z,28.20
2017-06-15T06:10:12.210Z,31.40
2017-06-15T06:12:38.826Z,32.30
2017-06-15T06:15:05.082Z,32.70
2017-06-15T06:17:31.720Z,32.60
2017-06-15T06:19:59.118Z,33.10
2017-06-15T06:22:25.361Z,32.90
2017-06-15T06:24:51.614Z,33.70
2017-06-15T06:27:18.239Z,32.10
2017-06-15T06:29:44.507Z,33.00
2017-06-15T06:32:10.801Z,33.10
2017-06-15T06:34:37.054Z,34.60
2017-06-15T06:37:04.197Z,33.70
2017-06-15T06:39:30.568Z,33.70
2017-06-15T06:46:53.676Z,33.80
2017-06-15T06:49:20.662Z,33.30
2017-06-15T06:51:47.364Z,33.90
2017-06-15T06:54:13.748Z,33.20
2017-06-15T06:56:42.663Z,33.40
2017-06-15T07:01:37.658Z,34.10
2017-06-15T07:04:04.433Z,32.10
2017-06-15T07:06:31.581Z,33.40
2017-06-15T07:08:57.848Z,33.40
2017-06-15T07:18:50.291Z,32.80
2017-06-15T07:21:21.307Z,33.20
2017-06-15T07:23:48.660Z,32.90
2017-06-15T07:26:16.564Z,32.80
2017-06-15T07:28:42.972Z,32.00
2017-06-15T07:31:09.977Z,31.30
2017-06-15T07:33:36.436Z,31.30
2017-06-15T07:36:02.770Z,31.40
2017-06-15T07:38:30.788Z,32.60
2017-06-15T07:40:57.553Z,32.00
2017-06-15T07:48:20.558Z,30.00
2017-06-15T07:53:16.355Z,29.50
2017-06-15T07:55:43.057Z,30.20
2017-06-15T07:58:09.353Z,29.00
2017-06-15T08:00:36.529Z,29.10
2017-06-15T08:03:03.529Z,29.00
2017-06-15T08:05:36.874Z,28.90
2017-06-15T08:15:28.255Z,28.30
2017-06-15T08:17:54.552Z,29.00
2017-06-15T08:20:20.859Z,28.20
2017-06-15T08:22:47.492Z,28.30
2017-06-15T08:25:14.189Z,27.70
2017-06-15T08:35:04.540Z,29.00
2017-06-15T08:37:30.805Z,28.60
2017-06-15T08:39:57.133Z,28.00
2017-06-15T08:42:23.433Z,29.30
2017-06-15T08:47:27.663Z,27.90
2017-06-15T08:49:54.687Z,27.20
2017-06-15T08:52:20.987Z,27.70
2017-06-15T08:54:47.634Z,27.30
2017-06-15T08:57:13.937Z,28.00
2017-06-15T08:59:41.063Z,27.50
2017-06-15T09:02:07.544Z,27.50
2017-06-15T09:04:33.813Z,27.50
2017-06-15T09:07:00.820Z,27.80
2017-06-15T09:09:27.161Z,27.60
2017-06-15T09:19:17.686Z,27.70
2017-06-15T09:21:45.495Z,27.60
2017-06-15T09:24:11.762Z,27.80
2017-06-15T09:26:38.394Z,27.00
2017-06-15T09:29:05.402Z,27.80
2017-06-15T09:31:33.037Z,26.30
2017-06-15T09:34:00.036Z,26.20
2017-06-15T09:36:26.342Z,25.60
2017-06-15T09:39:07.967Z,26.50
2017-06-15T09:46:30.350Z,24.90
2017-06-15T09:48:57.010Z,26.60
2017-06-15T09:53:57.350Z,24.30
2017-06-15T09:56:25.103Z,24.40
2017-06-15T09:58:51.416Z,24.60
2017-06-15T10:01:17.702Z,27.10
2017-06-15T10:03:44.357Z,23.90
2017-06-15T10:06:11.007Z,24.60
2017-06-15T10:08:38.394Z,24.50
2017-06-15T10:16:01.059Z,23.90
2017-06-15T10:18:27.745Z,24.80
2017-06-15T10:20:55.562Z,23.70
2017-06-15T10:23:23.317Z,24.50
2017-06-15T10:25:50.337Z,24.50
2017-06-15T10:28:17.353Z,21.90
2017-06-15T10:30:44.031Z,22.30
2017-06-15T10:33:11.843Z,21.70
2017-06-15T10:35:38.086Z,22.20
2017-06-15T10:38:04.362Z,23.20
2017-06-15T10:40:31.258Z,22.80
2017-06-15T10:50:21.958Z,22.30
2017-06-15T10:52:48.464Z,21.90
2017-06-15T10:55:17.399Z,21.10
2017-06-15T10:57:44.279Z,21.00
2017-06-15T11:02:39.052Z,22.60
2017-06-15T11:05:05.560Z,21.90
2017-06-15T11:07:32.810Z,20.70
2017-06-15T11:10:00.046Z,20.80
2017-06-15T11:12:27.146Z,22.40
2017-06-15T11:19:51.574Z,20.00
2017-06-15T11:22:25.061Z,20.40
2017-06-15T11:24:52.676Z,20.80
2017-06-15T11:27:19.190Z,19.50
2017-06-15T11:29:46.435Z,20.00
2017-06-15T11:32:12.848Z,19.20
2017-06-15T11:34:39.424Z,20.40
2017-06-15T11:37:05.925Z,18.50
2017-06-15T11:39:33.885Z,19.00
2017-06-15T11:42:00.385Z,20.50
2017-06-15T11:51:54.375Z,18.70
2017-06-15T11:54:21.613Z,20.10
2017-06-15T11:56:48.125Z,18.70
2017-06-15T11:59:15.144Z,18.40
2017-06-15T12:01:48.479Z,18.20
2017-06-15T12:04:15.338Z,18.10
2017-06-15T12:06:42.344Z,18.60
2017-06-15T12:09:09.736Z,20.50
2017-06-15T12:16:33.559Z,18.70
2017-06-15T12:19:00.480Z,19.30
2017-06-15T12:21:27.572Z,19.10
2017-06-15T12:23:54.103Z,18.50
2017-06-15T12:26:21.469Z,18.10
2017-06-15T12:28:48.741Z,18.60
2017-06-15T12:31:16.698Z,18.40
2017-06-15T12:33:43.288Z,17.90
2017-06-15T12:36:10.613Z,19.00
2017-06-15T12:38:37.140Z,18.50
2017-06-15T12:41:03.981Z,19.20
2017-06-15T12:48:28.054Z,18.30
2017-06-15T12:50:55.517Z,19.10
2017-06-15T12:53:22.013Z,19.30
2017-06-15T12:55:49.289Z,18.80
2017-06-15T12:58:16.594Z,19.10
2017-06-15T13:00:45.501Z,18.70
2017-06-15T13:03:14.184Z,18.60
2017-06-15T13:05:42.815Z,17.70
2017-06-15T13:08:09.326Z,18.40
2017-06-15T13:10:35.856Z,18.50
2017-06-15T13:13:02.382Z,19.40
2017-06-15T13:20:30.235Z,19.80
2017-06-15T13:22:57.141Z,20.10
2017-06-15T13:25:24.471Z,20.60
2017-06-15T13:27:51.686Z,20.00
2017-06-15T13:30:18.222Z,19.90
2017-06-15T13:32:45.478Z,20.10
2017-06-15T13:37:40.947Z,20.40
2017-06-15T13:40:08.522Z,20.50
2017-06-15T13:42:35.027Z,21.80
2017-06-15T13:50:02.752Z,22.10
2017-06-15T13:52:30.010Z,21.90
2017-06-15T13:54:57.273Z,22.00
2017-06-15T13:57:24.551Z,22.30
2017-06-15T13:59:51.033Z,22.10
2017-06-15T14:02:18.662Z,22.80
2017-06-15T14:04:50.495Z,23.10
2017-06-15T14:07:17.349Z,22.00
2017-06-15T14:09:44.238Z,22.60
2017-06-15T14:17:07.530Z,22.90
2017-06-15T14:19:40.727Z,22.90
2017-06-15T14:22:08.682Z,23.60
2017-06-15T14:24:34.953Z,23.10
2017-06-15T14:27:02.345Z,22.90
2017-06-15T14:29:28.989Z,23.60
2017-06-15T14:31:55.644Z,23.80
2017-06-15T14:46:45.299Z,23.60
2017-06-15T14:49:12.089Z,23.80
2017-06-15T14:51:44.130Z,23.60
2017-06-15T14:54:10.794Z,23.70
2017-06-15T14:56:37.827Z,23.90
2017-06-15T14:59:04.098Z,23.80
2017-06-15T15:01:30.363Z,23.30
2017-06-15T15:03:56.613Z,23.90
2017-06-15T15:06:23.606Z,24.90
2017-06-15T15:09:16.970Z,26.40
2017-06-15T15:11:43.991Z,26.80
2017-06-15T15:14:14.078Z,27.80
2017-06-15T15:16:40.402Z,31.90
2017-06-15T15:19:06.655Z,37.90
2017-06-15T15:21:32.910Z,36.30
2017-06-15T15:26:28.646Z,38.60
2017-06-15T15:28:55.690Z,41.60
2017-06-15T15:31:29.680Z,44.80
2017-06-15T15:33:56.732Z,41.70
2017-06-15T15:36:23.381Z,41.70
2017-06-15T15:38:49.663Z,41.00
2017-06-15T15:41:16.708Z,43.50
2017-06-15T15:43:44.097Z,44.30
2017-06-15T15:46:10.346Z,43.90
2017-06-15T15:53:32.984Z,45.40
2017-06-15T15:58:27.238Z,43.60
2017-06-15T16:05:51.036Z,47.20
2017-06-15T16:08:18.766Z,47.60
2017-06-15T16:13:43.790Z,52.40
2017-06-15T16:23:34.698Z,60.20
2017-06-15T16:26:00.975Z,60.60
2017-06-15T16:28:27.605Z,59.10
2017-06-15T16:30:53.878Z,60.60
2017-06-15T16:35:48.896Z,62.40
2017-06-15T16:40:43.266Z,63.00
2017-06-15T16:43:11.138Z,63.90
2017-06-15T16:45:37.809Z,64.00
2017-06-15T16:48:04.091Z,64.00
2017-06-15T16:55:27.506Z,62.40
2017-06-15T16:57:53.789Z,64.50
2017-06-15T17:00:20.816Z,63.50
2017-06-15T17:02:47.830Z,63.30
2017-06-15T17:05:14.995Z,63.90
2017-06-15T17:07:41.649Z,62.70
2017-06-15T17:10:07.948Z,62.90
2017-06-15T17:12:34.980Z,62.00
2017-06-15T17:15:01.299Z,62.50
2017-06-15T17:17:27.608Z,62.90
2017-06-15T17:22:22.394Z,63.30
2017-06-15T17:29:45.138Z,62.40
2017-06-15T17:34:39.810Z,62.20
2017-06-15T17:37:06.151Z,61.90
2017-06-15T17:39:33.561Z,60.90
2017-06-15T17:42:00.594Z,62.20
2017-06-15T17:44:27.237Z,62.00
2017-06-15T17:46:53.857Z,63.00
2017-06-15T17:49:20.126Z,62.10
2017-06-15T17:51:46.771Z,61.20
2017-06-15T17:54:13.074Z,61.20
2017-06-15T17:56:39.328Z,61.30
2017-06-15T18:04:03.305Z,60.10
2017-06-15T18:06:30.382Z,60.10
2017-06-15T18:08:56.680Z,59.50
2017-06-15T18:11:23.455Z,59.40
2017-06-15T18:13:49.750Z,59.50
2017-06-15T18:16:16.021Z,59.50
2017-06-15T18:18:42.279Z,59.00
2017-06-15T18:23:36.553Z,59.30
2017-06-15T18:26:02.863Z,59.10
2017-06-15T18:28:30.254Z,59.60
2017-06-15T18:38:21.761Z,58.40
2017-06-15T18:40:48.427Z,58.20
2017-06-15T18:43:16.002Z,58.10
2017-06-15T18:45:42.396Z,57.50
2017-06-15T18:48:09.034Z,58.20
2017-06-15T18:50:35.349Z,57.90
2017-06-15T18:55:30.765Z,57.60
2017-06-15T18:57:59.290Z,57.40
2017-06-15T19:00:25.581Z,57.40
2017-06-15T19:07:49.208Z,56.80
2017-06-15T19:10:16.812Z,58.20
2017-06-15T19:15:11.647Z,57.80
2017-06-15T19:17:38.019Z,56.70
2017-06-15T19:22:34.056Z,58.40
2017-06-15T19:25:01.345Z,57.10
2017-06-15T19:27:28.553Z,57.90
2017-06-15T19:29:56.610Z,57.80
2017-06-15T19:32:23.093Z,57.60
2017-06-15T19:39:47.322Z,57.30
2017-06-15T19:42:14.263Z,57.90
2017-06-15T19:44:45.418Z,58.60
2017-06-15T19:49:40.554Z,59.20
2017-06-15T19:52:07.094Z,59.20
2017-06-15T19:57:02.303Z,58.60
2017-06-15T19:59:29.689Z,59.50
2017-06-15T20:01:56.225Z,59.70
2017-06-15T20:09:19.253Z,56.80
2017-06-15T20:19:10.575Z,51.50
2017-06-15T20:21:37.137Z,49.40
2017-06-15T20:24:04.451Z,50.30
2017-06-15T20:26:32.593Z,49.90
2017-06-15T20:31:28.955Z,49.40
2017-06-15T20:48:46.937Z,42.00
2017-06-15T20:56:10.554Z,42.80
2017-06-15T20:58:38.580Z,41.70
2017-06-15T21:08:30.797Z,39.40
2017-06-15T21:15:56.045Z,39.80
2017-06-15T21:20:53.245Z,37.90
2017-06-15T21:23:19.866Z,40.00
2017-06-15T21:25:47.556Z,40.00
2017-06-15T21:33:11.465Z,40.80
2017-06-15T21:38:08.357Z,41.20
2017-06-15T21:43:04.463Z,39.00
2017-06-15T21:45:32.622Z,40.00
2017-06-15T21:50:27.874Z,39.70
2017-06-15T21:52:55.634Z,38.70
2017-06-15T22:02:48.480Z,38.70
2017-06-15T22:10:12.151Z,38.40
2017-06-15T22:12:39.184Z,37.80
2017-06-15T22:15:06.985Z,38.10
2017-06-15T22:17:33.666Z,38.90
2017-06-15T22:32:21.688Z,41.40
2017-06-15T22:39:45.175Z,40.60
2017-06-15T22:42:12.590Z,40.90
2017-06-15T22:47:06.942Z,42.60
2017-06-15T22:49:34.025Z,42.10
2017-06-15T22:52:01.378Z,42.30
2017-06-15T22:54:28.012Z,41.60
2017-06-15T23:04:19.550Z,42.40
2017-06-15T23:06:46.165Z,42.30
2017-06-15T23:09:13.553Z,42.30
2017-06-15T23:11:39.986Z,41.80
2017-06-15T23:14:07.346Z,42.10
2017-06-15T23:16:34.358Z,42.20
2017-06-15T23:23:58.178Z,41.70
2017-06-15T23:31:21.978Z,43.10
2017-06-15T23:33:49.830Z,42.70
2017-06-15T23:36:16.456Z,43.80
2017-06-15T23:38:43.829Z,42.40
2017-06-15T23:41:10.544Z,43.10
2017-06-15T23:46:05.916Z,44.10
2017-06-15T23:53:28.833Z,43.90
2017-06-15T23:55:55.511Z,43.20
